Time;durP1;ratioP1;P1;durP2;ratioP2;P2;SDS_P1;SDS_P2;PMS_P1;PMS_P2;Temp;Humidity;BMP_temperature;BMP_pressure;BME280_temperature;BME280_humidity;BME280_pressure;Samples;Min_cycle;Max_cycle;Signal;HPM_P1;HPM_P2
2024/02/28 05:06:34;;;;;;;0.40;0.40;;;7.50;99.90;;;;;;5448096;23;20232;-66
2024/02/28 05:09:00;;;;;;;0.30;0.30;;;7.50;99.90;;;;;;4954632;28;20223;-64
2024/02/28 05:11:26;;;;;;;2.10;1.40;;;7.40;99.90;;;;;;4955565;29;20635;-63
2024/02/28 05:13:51;;;;;;;0.37;0.37;;;7.40;99.90;;;;;;4955923;29;20782;-63
2024/02/28 05:16:17;;;;;;;0.30;0.30;;;7.50;99.90;;;;;;4955265;28;20215;-64
2024/02/28 05:18:44;;;;;;;0.30;0.30;;;7.40;99.90;;;;;;4955706;29;20560;-63
2024/02/28 05:21:10;;;;;;;0.40;0.40;;;7.40;99.90;;;;;;4955672;29;20165;-63
2024/02/28 05:23:36;;;;;;;0.38;0.38;;;7.30;99.90;;;;;;4955579;29;20661;-63
2024/02/28 05:26:03;;;;;;;3.27;1.37;;;7.30;99.90;;;;;;4955094;28;20173;-64
2024/02/28 05:28:35;;;;;;;0.50;0.50;;;7.30;99.90;;;;;;4955546;29;20173;-63
2024/02/28 05:31:23;;;;;;;0.40;0.40;;;7.30;99.90;;;;;;4955479;29;20651;-63
2024/02/28 05:33:51;;;;;;;0.30;0.30;;;7.20;99.90;;;;;;4955455;29;20181;-63
2024/02/28 05:36:17;;;;;;;0.70;0.70;;;7.20;99.90;;;;;;4937164;29;20198;-64
2024/02/28 05:38:43;;;;;;;0.40;0.40;;;7.20;99.90;;;;;;4954985;29;20169;-63
2024/02/28 05:41:09;;;;;;;1.73;1.73;;;7.20;99.90;;;;;;4955289;29;20690;-64
2024/02/28 05:43:36;;;;;;;0.40;0.40;;;7.10;99.90;;;;;;4955360;29;20272;-63
2024/02/28 05:46:02;;;;;;;0.30;0.30;;;7.10;99.90;;;;;;4954857;28;20192;-63
2024/02/28 05:48:28;;;;;;;0.30;0.30;;;7.10;99.90;;;;;;4955444;29;20252;-63
2024/02/28 05:50:53;;;;;;;0.30;0.30;;;7.10;99.90;;;;;;4955060;29;20274;-64
2024/02/28 05:53:19;;;;;;;0.30;0.27;;;7.10;99.90;;;;;;4955264;29;20290;-63
2024/02/28 05:55:45;;;;;;;0.30;0.30;;;7.10;99.90;;;;;;4954728;29;20168;-63
2024/02/28 05:58:11;;;;;;;0.40;0.40;;;7.10;99.90;;;;;;4955066;28;20210;-64
2024/02/28 06:00:37;;;;;;;0.97;0.97;;;7.10;99.90;;;;;;4954848;29;20592;-64
2024/02/28 06:03:03;;;;;;;0.40;0.40;;;7.10;99.90;;;;;;4954622;29;20173;-63
2024/02/28 06:05:28;;;;;;;0.40;0.40;;;7.10;99.90;;;;;;4954673;29;20516;-64
2024/02/28 06:07:54;;;;;;;1.00;1.00;;;7.10;99.90;;;;;;4954198;28;20439;-64
2024/02/28 06:10:21;;;;;;;0.30;0.30;;;7.00;99.90;;;;;;4955050;29;20258;-63
2024/02/28 06:12:46;;;;;;;0.40;0.40;;;7.10;99.90;;;;;;4954129;29;20188;-64
2024/02/28 06:15:12;;;;;;;0.40;0.40;;;7.00;99.90;;;;;;4931784;29;20183;-64
2024/02/28 06:17:38;;;;;;;0.40;0.40;;;7.00;99.90;;;;;;4969843;28;20330;-64
2024/02/28 06:20:04;;;;;;;0.47;0.47;;;7.00;99.90;;;;;;4976080;28;20250;-63
2024/02/28 06:22:29;;;;;;;0.75;0.75;;;6.90;99.90;;;;;;4978045;28;20802;-64
2024/02/28 06:24:55;;;;;;;0.30;0.30;;;7.00;99.90;;;;;;4947939;28;20271;-63
2024/02/28 06:27:21;;;;;;;0.40;0.40;;;7.00;99.90;;;;;;4937724;29;20569;-64
2024/02/28 06:29:46;;;;;;;0.43;0.43;;;7.00;99.90;;;;;;4958283;29;20208;-64
2024/02/28 06:32:12;;;;;;;0.50;0.50;;;7.00;99.90;;;;;;4958238;29;20630;-64
2024/02/28 06:34:37;;;;;;;0.30;0.30;;;7.10;99.90;;;;;;4956559;28;20260;-63
2024/02/28 06:37:03;;;;;;;0.30;0.30;;;7.00;99.90;;;;;;4938729;29;20529;-65
2024/02/28 06:39:29;;;;;;;0.40;0.40;;;7.00;99.90;;;;;;4948567;29;20200;-66
2024/02/28 06:41:54;;;;;;;0.33;0.33;;;7.00;99.90;;;;;;4940832;29;20478;-64
2024/02/28 06:44:20;;;;;;;0.40;0.40;;;7.00;99.90;;;;;;4959440;28;20185;-65
2024/02/28 06:46:46;;;;;;;0.30;0.30;;;7.00;99.90;;;;;;4977436;28;20203;-65
2024/02/28 06:49:11;;;;;;;0.30;0.30;;;7.00;99.90;;;;;;4975815;28;20266;-64
2024/02/28 06:51:37;;;;;;;0.30;0.30;;;7.10;99.90;;;;;;4959163;28;20211;-65
2024/02/28 06:54:03;;;;;;;0.30;0.30;;;7.10;99.90;;;;;;4974364;28;20183;-64
2024/02/28 06:56:30;;;;;;;0.38;0.38;;;7.10;99.90;;;;;;4957693;29;20439;-64
2024/02/28 06:58:56;;;;;;;0.52;0.52;;;7.10;99.90;;;;;;4957785;29;20180;-64
2024/02/28 07:01:22;;;;;;;0.30;0.30;;;7.10;99.90;;;;;;4957946;28;20191;-65
2024/02/28 07:03:47;;;;;;;3.20;0.67;;;7.10;99.90;;;;;;4957676;28;20205;-66
2024/02/28 07:06:13;;;;;;;0.40;0.40;;;7.10;99.90;;;;;;4950075;29;20280;-64
2024/02/28 07:08:38;;;;;;;0.30;0.30;;;7.20;99.90;;;;;;4957495;29;20196;-64
2024/02/28 07:11:04;;;;;;;0.30;0.30;;;7.20;99.90;;;;;;4948962;29;20181;-65
2024/02/28 07:13:30;;;;;;;0.40;0.40;;;7.20;99.90;;;;;;4938222;29;20936;-65
2024/02/28 07:15:57;;;;;;;0.30;0.20;;;7.20;99.90;;;;;;4936905;29;20170;-66
2024/02/28 07:18:25;;;;;;;0.30;0.30;;;7.20;99.90;;;;;;4938173;29;20214;-64
2024/02/28 07:20:51;;;;;;;0.30;0.30;;;7.20;99.90;;;;;;4938286;29;20177;-64
2024/02/28 07:23:17;;;;;;;0.35;0.35;;;7.20;99.90;;;;;;4938060;29;20172;-65
2024/02/28 07:25:43;;;;;;;0.37;0.37;;;7.20;99.90;;;;;;4937908;29;20256;-65
2024/02/28 07:28:08;;;;;;;0.30;0.30;;;7.20;99.90;;;;;;4938107;29;20216;-63
2024/02/28 07:30:35;;;;;;;0.30;0.30;;;7.20;99.90;;;;;;4937481;29;20692;-65
2024/02/28 07:33:00;;;;;;;0.50;0.50;;;7.20;99.90;;;;;;4920992;29;20686;-65
2024/02/28 07:35:26;;;;;;;0.40;0.40;;;7.20;99.90;;;;;;4920847;29;20180;-65
2024/02/28 07:37:52;;;;;;;0.30;0.30;;;7.20;99.90;;;;;;4937890;29;20659;-67
2024/02/28 07:40:18;;;;;;;0.50;0.50;;;7.20;99.90;;;;;;4938409;29;20169;-65
2024/02/28 07:42:43;;;;;;;0.30;0.30;;;7.20;99.90;;;;;;4920565;29;20184;-65
2024/02/28 07:45:09;;;;;;;0.30;0.30;;;7.20;99.90;;;;;;4937656;29;20229;-64
2024/02/28 07:47:35;;;;;;;0.30;0.30;;;7.20;99.90;;;;;;4937851;29;20717;-65
2024/02/28 07:50:00;;;;;;;0.30;0.30;;;7.20;99.90;;;;;;4937963;29;20711;-64
2024/02/28 07:52:26;;;;;;;0.40;0.40;;;7.30;99.90;;;;;;4937533;29;20228;-66
2024/02/28 07:54:52;;;;;;;0.40;0.40;;;7.30;99.90;;;;;;4937103;29;20509;-67
2024/02/28 07:57:17;;;;;;;0.77;0.57;;;7.40;99.90;;;;;;4937564;29;20580;-66
2024/02/28 07:59:43;;;;;;;0.60;0.60;;;7.40;99.90;;;;;;4937693;29;20639;-65
2024/02/28 08:02:12;;;;;;;0.43;0.43;;;7.40;99.90;;;;;;4937683;29;20182;-65
2024/02/28 08:04:38;;;;;;;0.40;0.40;;;7.40;99.90;;;;;;4937135;29;20177;-65
2024/02/28 08:07:05;;;;;;;0.50;0.50;;;7.50;99.90;;;;;;4937584;29;20596;-65
2024/02/28 08:09:30;;;;;;;0.80;0.80;;;7.50;99.90;;;;;;4937351;29;20193;-65
2024/02/28 08:11:57;;;;;;;0.57;0.57;;;7.50;99.90;;;;;;4937325;29;20249;-66
2024/02/28 08:14:25;;;;;;;0.30;0.30;;;7.50;99.90;;;;;;4920560;29;20215;-65
2024/02/28 08:16:53;;;;;;;0.30;0.30;;;7.50;99.90;;;;;;4937257;29;20193;-64
2024/02/28 08:19:19;;;;;;;0.30;0.30;;;7.50;99.90;;;;;;4937309;29;20165;-66
2024/02/28 08:21:45;;;;;;;0.30;0.20;;;7.40;99.90;;;;;;4937001;29;20180;-66
2024/02/28 08:24:10;;;;;;;0.37;0.37;;;7.40;99.90;;;;;;4919912;29;20213;-64
2024/02/28 08:26:36;;;;;;;0.50;0.50;;;7.40;99.90;;;;;;4936778;29;20278;-65
2024/02/28 08:29:02;;;;;;;0.40;0.40;;;7.40;99.90;;;;;;4937034;29;20188;-65
2024/02/28 08:31:28;;;;;;;0.30;0.30;;;7.50;99.90;;;;;;4938895;29;20201;-69
2024/02/28 08:33:55;;;;;;;0.70;0.70;;;7.50;99.90;;;;;;4956066;29;20496;-71
2024/02/28 08:36:21;;;;;;;0.30;0.30;;;7.50;99.90;;;;;;4955750;28;20180;-70
2024/02/28 08:38:46;;;;;;;0.40;0.40;;;7.50;99.90;;;;;;4955945;29;20662;-73
2024/02/28 08:41:12;;;;;;;0.40;0.40;;;7.50;99.90;;;;;;4955726;29;20750;-69
2024/02/28 08:43:40;;;;;;;0.33;0.33;;;7.50;99.90;;;;;;4955554;28;20593;-69
2024/02/28 08:46:06;;;;;;;0.30;0.30;;;7.50;99.90;;;;;;4955670;28;20623;-71
2024/02/28 08:48:32;;;;;;;0.30;0.30;;;7.50;99.90;;;;;;4956282;29;20183;-70
2024/02/28 08:50:58;;;;;;;0.40;0.40;;;7.50;99.90;;;;;;4955743;29;20173;-71
2024/02/28 08:53:24;;;;;;;0.33;0.33;;;7.50;99.90;;;;;;4955862;29;20700;-70
2024/02/28 08:55:49;;;;;;;0.50;0.50;;;7.50;99.90;;;;;;4955319;29;20169;-71
2024/02/28 08:58:15;;;;;;;0.30;0.30;;;7.50;99.90;;;;;;4937901;29;20643;-70
2024/02/28 09:00:41;;;;;;;0.93;0.93;;;7.50;99.90;;;;;;4960568;28;20179;-67
2024/02/28 09:03:06;;;;;;;0.37;0.37;;;7.50;99.90;;;;;;4958183;28;20227;-70
2024/02/28 09:05:32;;;;;;;0.63;0.63;;;7.50;99.90;;;;;;4955425;29;20264;-70
2024/02/28 09:08:02;;;;;;;0.57;0.57;;;7.60;99.90;;;;;;4955318;29;20563;-72
2024/02/28 09:10:34;;;;;;;0.30;0.30;;;7.60;99.90;;;;;;4955688;28;20173;-69
2024/02/28 09:13:00;;;;;;;0.30;0.30;;;7.70;99.90;;;;;;4968871;28;20340;-69
2024/02/28 09:15:26;;;;;;;0.30;0.30;;;7.80;99.90;;;;;;4959021;28;20200;-72
2024/02/28 09:17:52;;;;;;;0.90;0.90;;;7.80;99.90;;;;;;4938208;29;20275;-69
2024/02/28 09:20:18;;;;;;;0.47;0.47;;;7.80;99.90;;;;;;4955454;29;20180;-70
2024/02/28 09:22:44;;;;;;;0.30;0.30;;;7.80;99.90;;;;;;4955311;28;20379;-66
2024/02/28 09:25:10;;;;;;;0.30;0.30;;;7.80;99.90;;;;;;4937807;29;20267;-68
2024/02/28 09:27:36;;;;;;;0.87;0.87;;;7.80;99.90;;;;;;4955262;29;20655;-71
2024/02/28 09:30:03;;;;;;;0.32;0.32;;;7.70;99.90;;;;;;4938083;29;20459;-69
2024/02/28 09:32:32;;;;;;;0.30;0.30;;;7.80;99.90;;;;;;4955231;29;20196;-70
2024/02/28 09:34:57;;;;;;;0.40;0.40;;;7.80;99.90;;;;;;4954798;29;20627;-69
2024/02/28 09:37:24;;;;;;;0.40;0.40;;;7.80;99.90;;;;;;4954783;29;20208;-71
2024/02/28 09:39:50;;;;;;;5.20;1.30;;;7.90;99.90;;;;;;4955168;28;20275;-72
2024/02/28 09:42:16;;;;;;;5.20;1.30;;;7.90;99.90;;;;;;4955201;29;20209;-70
2024/02/28 09:44:43;;;;;;;0.30;0.30;;;8.00;99.90;;;;;;4954784;29;20184;-69
2024/02/28 09:47:09;;;;;;;0.30;0.30;;;8.00;99.90;;;;;;4937605;29;20343;-70
2024/02/28 09:49:37;;;;;;;0.40;0.40;;;8.20;99.90;;;;;;4937700;29;20205;-71
2024/02/28 09:52:03;;;;;;;0.30;0.30;;;8.20;99.90;;;;;;4954593;29;20674;-71
2024/02/28 09:54:29;;;;;;;0.60;0.60;;;8.20;99.90;;;;;;4954126;28;20383;-70
2024/02/28 09:56:55;;;;;;;0.30;0.30;;;8.30;99.90;;;;;;4954923;29;20263;-69
2024/02/28 09:59:23;;;;;;;1.00;1.00;;;8.40;99.90;;;;;;4954926;29;20421;-70
2024/02/28 10:02:11;;;;;;;0.38;0.38;;;8.50;99.90;;;;;;4954954;29;20227;-69
2024/02/28 10:04:37;;;;;;;0.40;0.40;;;8.50;99.90;;;;;;4954278;29;20300;-71
2024/02/28 10:07:13;;;;;;;0.88;0.85;;;8.50;99.90;;;;;;4937517;29;20200;-70
2024/02/28 10:09:42;;;;;;;0.30;0.30;;;8.50;99.90;;;;;;4954644;29;20266;-72
2024/02/28 10:12:08;;;;;;;0.40;0.40;;;8.60;99.90;;;;;;4954734;29;20196;-69
2024/02/28 10:14:33;;;;;;;0.30;0.30;;;8.70;99.90;;;;;;4954121;29;20227;-71
2024/02/28 10:16:59;;;;;;;0.30;0.30;;;8.80;99.90;;;;;;4954678;29;20197;-72
2024/02/28 10:19:25;;;;;;;0.40;0.40;;;8.80;99.90;;;;;;4954566;29;20170;-69
2024/02/28 10:21:51;;;;;;;0.30;0.20;;;8.90;99.90;;;;;;4954642;29;20177;-72
2024/02/28 10:24:17;;;;;;;0.30;0.30;;;8.80;99.90;;;;;;4937027;29;20540;-71
2024/02/28 10:26:44;;;;;;;0.40;0.40;;;8.80;99.90;;;;;;4954518;29;20192;-71
2024/02/28 10:29:10;;;;;;;0.30;0.30;;;8.90;99.90;;;;;;4937215;29;20208;-70
2024/02/28 10:31:36;;;;;;;0.30;0.30;;;8.90;99.90;;;;;;4954154;29;20228;-70
2024/02/28 10:34:03;;;;;;;1.77;1.60;;;8.90;99.90;;;;;;4954221;29;20440;-70
2024/02/28 10:36:32;;;;;;;1.15;1.05;;;9.00;99.90;;;;;;4953893;29;20784;-68
2024/02/28 10:38:58;;;;;;;0.30;0.30;;;9.00;99.90;;;;;;4936889;29;20551;-67
2024/02/28 10:41:26;;;;;;;0.30;0.30;;;9.00;99.90;;;;;;4954343;29;20522;-73
2024/02/28 10:43:53;;;;;;;0.30;0.30;;;9.00;99.90;;;;;;4953911;29;20488;-69
2024/02/28 10:46:21;;;;;;;0.40;0.40;;;9.00;99.90;;;;;;4953956;29;20192;-65
2024/02/28 10:48:49;;;;;;;0.30;0.30;;;9.00;99.90;;;;;;4954255;29;20171;-65
2024/02/28 10:51:22;;;;;;;0.30;0.30;;;9.00;99.90;;;;;;4954149;29;20580;-63
2024/02/28 10:53:53;;;;;;;0.30;0.30;;;8.90;99.90;;;;;;4969627;28;20737;-64
2024/02/28 10:56:19;;;;;;;0.30;0.30;;;9.00;99.90;;;;;;4973268;28;20203;-64
2024/02/28 10:58:55;;;;;;;0.30;0.30;;;9.00;99.90;;;;;;4973296;28;20169;-65
2024/02/28 11:01:21;;;;;;;0.40;0.40;;;8.90;99.90;;;;;;4956055;28;20415;-65
2024/02/28 11:03:48;;;;;;;0.40;0.40;;;8.90;99.90;;;;;;4973253;28;20169;-64
2024/02/28 11:06:21;;;;;;;0.30;0.20;;;8.90;99.90;;;;;;4975122;28;20192;-64
2024/02/28 11:08:54;;;;;;;0.30;0.30;;;8.90;99.90;;;;;;4977092;28;20192;-63
2024/02/28 11:11:21;;;;;;;0.55;0.55;;;8.90;99.90;;;;;;4976873;28;20178;-65
2024/02/28 11:13:54;;;;;;;1.13;1.02;;;8.90;99.90;;;;;;4959413;28;20168;-66
2024/02/28 11:16:30;;;;;;;0.40;0.40;;;8.90;99.90;;;;;;4976496;28;20211;-64
2024/02/28 11:18:56;;;;;;;0.30;0.30;;;8.80;99.90;;;;;;4976950;28;20176;-65
2024/02/28 11:21:28;;;;;;;0.30;0.30;;;8.80;99.90;;;;;;4977014;28;20168;-66
2024/02/28 11:24:04;;;;;;;0.30;0.30;;;8.70;99.90;;;;;;4976829;28;20408;-65
2024/02/28 11:26:30;;;;;;;0.60;0.60;;;8.70;99.90;;;;;;4976389;28;20199;-66
2024/02/28 11:28:56;;;;;;;0.60;0.60;;;8.70;99.90;;;;;;4976999;28;20623;-64
2024/02/28 11:31:22;;;;;;;0.30;0.30;;;8.70;99.90;;;;;;4976822;28;20231;-65
2024/02/28 11:33:48;;;;;;;0.32;0.32;;;8.70;99.90;;;;;;4976829;28;20747;-66
2024/02/28 11:36:14;;;;;;;0.40;0.40;;;8.60;99.90;;;;;;4976457;28;20192;-65
2024/02/28 11:38:40;;;;;;;0.30;0.20;;;8.60;99.90;;;;;;4976786;28;20184;-64
2024/02/28 11:41:07;;;;;;;0.43;0.43;;;8.50;99.90;;;;;;4976699;28;20272;-65
2024/02/28 11:43:33;;;;;;;0.40;0.40;;;8.50;99.90;;;;;;4976804;28;20179;-64
2024/02/28 11:45:59;;;;;;;0.30;0.30;;;8.50;99.90;;;;;;4975847;28;20172;-65
2024/02/28 11:48:26;;;;;;;0.30;0.30;;;8.50;99.90;;;;;;4976550;28;20207;-65
2024/02/28 11:50:52;;;;;;;0.38;0.38;;;8.50;99.90;;;;;;4976266;28;20179;-65
2024/02/28 11:53:18;;;;;;;0.30;0.30;;;8.50;99.90;;;;;;4976273;28;20196;-65
2024/02/28 11:55:47;;;;;;;0.40;0.40;;;8.40;99.90;;;;;;4975751;28;20199;-67
2024/02/28 11:58:13;;;;;;;0.30;0.30;;;8.40;99.90;;;;;;4975961;28;20184;-64
2024/02/28 12:00:51;;;;;;;1.40;1.40;;;8.40;99.90;;;;;;4976087;28;20547;-65
2024/02/28 12:03:24;;;;;;;0.30;0.30;;;8.30;99.90;;;;;;4975663;28;20419;-66
2024/02/28 12:05:50;;;;;;;0.30;0.30;;;8.40;99.90;;;;;;4958364;28;20639;-66
2024/02/28 12:08:19;;;;;;;0.60;0.60;;;8.40;99.90;;;;;;4975971;28;20219;-66
2024/02/28 12:10:49;;;;;;;1.10;1.00;;;8.40;99.90;;;;;;4958569;28;20664;-65
2024/02/28 12:13:18;;;;;;;0.40;0.40;;;8.40;99.90;;;;;;4975984;28;20250;-65
2024/02/28 12:15:49;;;;;;;0.30;0.30;;;8.40;99.90;;;;;;4975736;28;20175;-64
2024/02/28 12:18:17;;;;;;;0.30;0.30;;;8.40;99.90;;;;;;4974972;28;20250;-64
2024/02/28 12:20:43;;;;;;;0.40;0.40;;;8.30;99.90;;;;;;4976005;28;20178;-65
2024/02/28 12:23:09;;;;;;;0.30;0.30;;;8.30;99.90;;;;;;4974491;28;20504;-66
2024/02/28 12:25:34;;;;;;;0.52;0.52;;;8.40;99.90;;;;;;4974386;28;20271;-66
2024/02/28 12:28:01;;;;;;;0.30;0.30;;;8.40;99.90;;;;;;4971828;28;20294;-65
2024/02/28 12:30:27;;;;;;;0.30;0.30;;;8.40;99.90;;;;;;4968275;28;20184;-65
2024/02/28 12:32:52;;;;;;;0.40;0.40;;;8.40;99.90;;;;;;4955472;29;20204;-64
2024/02/28 12:35:18;;;;;;;0.30;0.30;;;8.40;99.90;;;;;;4955578;29;20171;-64
2024/02/28 12:37:43;;;;;;;1.43;0.93;;;8.40;99.90;;;;;;4955756;29;20193;-63
2024/02/28 12:40:09;;;;;;;0.30;0.30;;;8.40;99.90;;;;;;4956057;29;20168;-65
2024/02/28 12:42:36;;;;;;;0.30;0.30;;;8.40;99.90;;;;;;4955802;29;20583;-64
2024/02/28 12:45:02;;;;;;;0.20;0.20;;;8.40;99.90;;;;;;4955616;29;20930;-63
2024/02/28 12:47:30;;;;;;;0.30;0.20;;;8.40;99.90;;;;;;4955780;29;20193;-66
2024/02/28 12:49:56;;;;;;;0.38;0.38;;;8.40;99.90;;;;;;4955735;29;20200;-65
2024/02/28 12:52:21;;;;;;;0.40;0.40;;;8.50;99.90;;;;;;4955694;29;20196;-64
2024/02/28 12:54:47;;;;;;;0.30;0.30;;;8.50;99.90;;;;;;4955339;29;20651;-65
2024/02/28 12:57:16;;;;;;;0.30;0.30;;;8.50;99.90;;;;;;4956006;29;20276;-65
2024/02/28 12:59:42;;;;;;;0.30;0.30;;;8.50;99.90;;;;;;4956024;29;20176;-64
2024/02/28 13:02:10;;;;;;;1.10;1.10;;;8.50;99.90;;;;;;4956222;29;20173;-64
2024/02/28 13:04:35;;;;;;;0.30;0.30;;;8.50;99.90;;;;;;4955794;29;20215;-63
2024/02/28 13:07:01;;;;;;;0.33;0.33;;;8.50;99.90;;;;;;4955745;29;20682;-63
2024/02/28 13:09:26;;;;;;;0.40;0.40;;;8.50;99.90;;;;;;4938138;29;20188;-66
2024/02/28 13:11:52;;;;;;;0.40;0.40;;;8.50;99.90;;;;;;4957446;29;20207;-64
2024/02/28 13:14:18;;;;;;;0.30;0.30;;;8.50;99.90;;;;;;4955333;29;20172;-64
2024/02/28 13:16:44;;;;;;;0.40;0.40;;;8.50;99.90;;;;;;4955411;29;20523;-63
2024/02/28 13:19:10;;;;;;;0.30;0.30;;;8.60;99.90;;;;;;4955623;29;20172;-64
2024/02/28 13:21:36;;;;;;;0.37;0.37;;;8.60;99.90;;;;;;4955605;29;20169;-64
2024/02/28 13:24:04;;;;;;;0.40;0.40;;;8.70;99.90;;;;;;4955426;29;20420;-65
2024/02/28 13:26:29;;;;;;;0.30;0.30;;;8.70;99.90;;;;;;4954750;29;20208;-65
2024/02/28 13:28:55;;;;;;;0.40;0.40;;;8.70;99.90;;;;;;4937583;29;20173;-65
2024/02/28 13:31:21;;;;;;;0.30;0.30;;;8.80;99.90;;;;;;4955140;29;20707;-64
2024/02/28 13:33:48;;;;;;;0.47;0.47;;;8.80;99.90;;;;;;4955432;29;20169;-65
2024/02/28 13:36:14;;;;;;;0.75;0.65;;;8.80;99.90;;;;;;4954993;29;20432;-64
2024/02/28 13:38:39;;;;;;;0.30;0.30;;;8.90;99.90;;;;;;4955427;29;20241;-66
2024/02/28 13:41:05;;;;;;;0.33;0.33;;;8.90;99.90;;;;;;4955389;29;20166;-66
2024/02/28 13:43:31;;;;;;;0.40;0.40;;;8.90;99.90;;;;;;4955134;29;20200;-66
2024/02/28 13:46:00;;;;;;;0.30;0.30;;;8.90;99.90;;;;;;4954621;29;20443;-65
2024/02/28 13:48:28;;;;;;;0.38;0.38;;;8.90;99.90;;;;;;4955378;29;20169;-66
2024/02/28 13:50:54;;;;;;;1.10;1.10;;;8.90;99.90;;;;;;4955322;29;20174;-65
2024/02/28 13:53:20;;;;;;;0.43;0.43;;;8.90;99.90;;;;;;4955104;29;20303;-65
2024/02/28 13:55:45;;;;;;;0.30;0.30;;;8.90;99.90;;;;;;4954880;29;20647;-66
2024/02/28 13:58:12;;;;;;;1.07;1.07;;;8.90;99.90;;;;;;4955186;29;20284;-64
2024/02/28 14:00:38;;;;;;;0.40;0.40;;;9.00;99.90;;;;;;4956118;29;20264;-67
2024/02/28 14:03:04;;;;;;;0.52;0.52;;;9.00;99.90;;;;;;4956190;29;20505;-67
2024/02/28 14:05:30;;;;;;;0.50;0.50;;;9.00;99.90;;;;;;4938321;29;20268;-64
2024/02/28 14:07:57;;;;;;;0.60;0.60;;;9.10;99.90;;;;;;4955927;29;20240;-65
2024/02/28 14:10:23;;;;;;;0.30;0.30;;;9.10;99.90;;;;;;4956809;29;20180;-65
2024/02/28 14:12:49;;;;;;;0.30;0.30;;;9.10;99.90;;;;;;4955914;29;20202;-66
2024/02/28 14:15:15;;;;;;;0.30;0.30;;;9.10;99.90;;;;;;4956804;29;20232;-70
2024/02/28 14:17:40;;;;;;;1.50;1.45;;;9.20;99.90;;;;;;4955643;29;20225;-69
2024/02/28 14:20:08;;;;;;;0.30;0.30;;;9.20;99.90;;;;;;4938126;29;20213;-70
2024/02/28 14:22:34;;;;;;;0.30;0.30;;;9.20;99.90;;;;;;4955035;29;20169;-69
2024/02/28 14:25:00;;;;;;;0.37;0.37;;;9.10;99.90;;;;;;4954931;29;20677;-70
2024/02/28 14:27:32;;;;;;;0.30;0.30;;;9.20;99.90;;;;;;4954963;29;20198;-69
2024/02/28 14:29:58;;;;;;;0.40;0.40;;;9.10;99.90;;;;;;4954990;29;20620;-69
2024/02/28 14:32:24;;;;;;;0.30;0.30;;;9.10;99.90;;;;;;4957578;29;20229;-69
2024/02/28 14:34:50;;;;;;;0.30;0.30;;;9.00;99.90;;;;;;4958425;29;20173;-70
2024/02/28 14:37:16;;;;;;;0.38;0.38;;;9.00;99.90;;;;;;4958459;29;20201;-69
2024/02/28 14:39:42;;;;;;;0.30;0.30;;;9.00;99.90;;;;;;4957819;28;20179;-69
2024/02/28 14:42:11;;;;;;;0.30;0.30;;;8.90;99.90;;;;;;4958759;29;20480;-68
2024/02/28 14:44:39;;;;;;;0.30;0.30;;;8.90;99.90;;;;;;4957332;29;20173;-69
2024/02/28 14:47:05;;;;;;;0.30;0.30;;;8.90;99.90;;;;;;4958001;29;20192;-68
2024/02/28 14:49:31;;;;;;;1.43;0.70;;;8.90;99.90;;;;;;4957894;29;20699;-70
2024/02/28 14:51:56;;;;;;;0.30;0.30;;;8.90;99.90;;;;;;4956816;29;20192;-70
2024/02/28 14:54:22;;;;;;;0.30;0.20;;;8.90;99.90;;;;;;4956451;29;20624;-72
2024/02/28 14:56:48;;;;;;;0.40;0.40;;;8.90;99.90;;;;;;4956536;29;20200;-70
2024/02/28 14:59:14;;;;;;;0.30;0.30;;;8.80;99.90;;;;;;4939394;29;20177;-70
2024/02/28 15:01:40;;;;;;;0.40;0.40;;;8.80;99.90;;;;;;4956938;29;20499;-71
2024/02/28 15:04:09;;;;;;;0.67;0.67;;;8.70;99.90;;;;;;4957090;29;20981;-69
2024/02/28 15:06:34;;;;;;;0.40;0.40;;;8.70;99.90;;;;;;4957702;29;20192;-68
2024/02/28 15:09:05;;;;;;;0.30;0.30;;;8.70;99.90;;;;;;4957904;29;20190;-69
2024/02/28 15:11:31;;;;;;;0.30;0.20;;;8.70;99.90;;;;;;4958208;29;20259;-70
2024/02/28 15:13:56;;;;;;;0.40;0.40;;;8.60;99.90;;;;;;4940755;29;20286;-70
2024/02/28 15:16:22;;;;;;;0.43;0.43;;;8.60;99.90;;;;;;4940192;29;20611;-70
2024/02/28 15:18:47;;;;;;;0.30;0.30;;;8.60;99.90;;;;;;4958032;29;20227;-70
2024/02/28 15:21:13;;;;;;;0.30;0.30;;;8.60;99.90;;;;;;4957634;29;20205;-69
2024/02/28 15:23:39;;;;;;;0.40;0.40;;;8.70;99.90;;;;;;4940420;29;20177;-69
2024/02/28 15:26:04;;;;;;;0.30;0.30;;;8.70;99.90;;;;;;4957458;29;20536;-70
2024/02/28 15:28:30;;;;;;;0.40;0.40;;;8.70;99.90;;;;;;4957810;29;20184;-69
2024/02/28 15:30:56;;;;;;;0.50;0.50;;;8.80;99.90;;;;;;4940560;29;20184;-69
2024/02/28 15:33:22;;;;;;;0.30;0.30;;;8.80;99.90;;;;;;4940362;29;20807;-70
2024/02/28 15:35:47;;;;;;;0.30;0.30;;;8.70;99.90;;;;;;4957116;29;20171;-69
2024/02/28 15:38:13;;;;;;;0.30;0.30;;;8.70;99.90;;;;;;4957408;29;20201;-70
2024/02/28 15:40:40;;;;;;;0.30;0.30;;;8.70;99.90;;;;;;4940450;29;20228;-70
2024/02/28 15:43:07;;;;;;;0.30;0.30;;;8.70;99.90;;;;;;4940231;29;20699;-70
2024/02/28 15:45:33;;;;;;;0.90;0.90;;;8.60;99.90;;;;;;4957201;29;20219;-70
2024/02/28 15:48:01;;;;;;;0.32;0.32;;;8.60;99.90;;;;;;4957145;29;20555;-70
2024/02/28 15:50:26;;;;;;;0.30;0.30;;;8.60;99.90;;;;;;4957210;29;20169;-69
2024/02/28 15:52:53;;;;;;;0.30;0.30;;;8.60;99.90;;;;;;4956383;28;20204;-69
2024/02/28 15:55:21;;;;;;;0.40;0.40;;;8.60;99.90;;;;;;4938967;29;20176;-70
2024/02/28 15:57:47;;;;;;;0.30;0.30;;;8.60;99.90;;;;;;4939832;29;20194;-69
2024/02/28 16:00:14;;;;;;;0.45;0.45;;;8.70;99.90;;;;;;4957155;29;20165;-68
2024/02/28 16:02:39;;;;;;;0.30;0.30;;;8.70;99.90;;;;;;4957078;29;20274;-70
2024/02/28 16:05:05;;;;;;;0.30;0.20;;;8.60;99.90;;;;;;4939248;29;20223;-68
2024/02/28 16:07:31;;;;;;;0.30;0.20;;;8.60;99.90;;;;;;4956773;29;20667;-70
2024/02/28 16:09:56;;;;;;;0.30;0.30;;;8.60;99.90;;;;;;4956624;29;20203;-69
2024/02/28 16:12:23;;;;;;;1.80;0.80;;;8.60;99.90;;;;;;4956873;29;20205;-69
2024/02/28 16:14:52;;;;;;;0.50;0.50;;;8.60;99.90;;;;;;4956490;29;20196;-70
2024/02/28 16:17:17;;;;;;;0.30;0.30;;;8.70;99.90;;;;;;4956981;29;20216;-68
2024/02/28 16:19:43;;;;;;;0.30;0.30;;;8.70;99.90;;;;;;4956778;29;20172;-69
2024/02/28 16:22:09;;;;;;;0.30;0.30;;;8.70;99.90;;;;;;4956771;29;20181;-68
2024/02/28 16:24:35;;;;;;;0.30;0.30;;;8.60;99.90;;;;;;4956049;29;20173;-69
2024/02/28 16:27:03;;;;;;;0.95;0.47;;;8.70;99.90;;;;;;4956206;29;20451;-70
2024/02/28 16:29:28;;;;;;;0.40;0.40;;;8.60;99.90;;;;;;4956095;29;20260;-68
2024/02/28 16:31:55;;;;;;;0.30;0.30;;;8.70;99.90;;;;;;4956834;29;20715;-69
2024/02/28 16:34:20;;;;;;;0.30;0.30;;;8.70;99.90;;;;;;4956160;29;20473;-69
2024/02/28 16:36:46;;;;;;;0.40;0.40;;;8.70;99.90;;;;;;4939049;29;20255;-69
2024/02/28 16:39:20;;;;;;;0.40;0.40;;;8.70;99.90;;;;;;4956675;29;20258;-69
2024/02/28 16:41:46;;;;;;;0.40;0.40;;;8.70;99.90;;;;;;4956845;29;20176;-68
2024/02/28 16:44:12;;;;;;;0.30;0.30;;;8.60;99.90;;;;;;4956697;29;20240;-68
2024/02/28 16:46:37;;;;;;;0.30;0.30;;;8.50;99.90;;;;;;4956311;29;20216;-68
2024/02/28 16:49:03;;;;;;;2.20;2.10;;;8.50;99.90;;;;;;4957660;29;20232;-68
2024/02/28 16:51:28;;;;;;;0.30;0.30;;;8.50;99.90;;;;;;4958315;29;20411;-68
2024/02/28 16:53:54;;;;;;;0.93;0.83;;;8.40;99.90;;;;;;4956876;29;20563;-69
2024/02/28 16:56:19;;;;;;;0.30;0.30;;;8.40;99.90;;;;;;4957775;29;20253;-70
2024/02/28 16:58:45;;;;;;;0.30;0.30;;;8.40;99.90;;;;;;4957209;29;20173;-68
2024/02/28 17:01:12;;;;;;;0.30;0.30;;;8.40;99.90;;;;;;4955991;29;20264;-71
2024/02/28 17:03:38;;;;;;;0.30;0.30;;;8.40;99.90;;;;;;4955762;28;20544;-68
2024/02/28 17:06:05;;;;;;;0.30;0.30;;;8.40;99.90;;;;;;4955498;29;20176;-69
2024/02/28 17:08:32;;;;;;;0.30;0.30;;;8.40;99.90;;;;;;4955710;29;20239;-70
2024/02/28 17:10:58;;;;;;;0.30;0.30;;;8.40;99.90;;;;;;4955892;29;20197;-66
2024/02/28 17:13:25;;;;;;;0.30;0.30;;;8.30;99.90;;;;;;4955808;29;20308;-67
2024/02/28 17:15:54;;;;;;;0.30;0.30;;;8.30;99.90;;;;;;4955207;29;20173;-66
2024/02/28 17:18:21;;;;;;;0.30;0.30;;;8.40;99.90;;;;;;4955441;29;20176;-67
2024/02/28 17:20:47;;;;;;;0.30;0.30;;;8.40;99.90;;;;;;4955599;29;20176;-66
2024/02/28 17:23:13;;;;;;;0.30;0.30;;;8.40;99.90;;;;;;4955681;29;20180;-70
2024/02/28 17:25:38;;;;;;;0.57;0.57;;;8.40;99.90;;;;;;4960813;28;20172;-68
2024/02/28 17:28:05;;;;;;;0.33;0.33;;;8.30;99.90;;;;;;4964805;28;20211;-67
2024/02/28 17:30:31;;;;;;;0.30;0.30;;;8.30;99.90;;;;;;4964803;28;20199;-66
2024/02/28 17:32:57;;;;;;;0.90;0.90;;;8.30;99.90;;;;;;4963177;28;20235;-66
2024/02/28 17:35:22;;;;;;;0.30;0.30;;;8.30;99.90;;;;;;4959700;28;20204;-68
2024/02/28 17:37:48;;;;;;;0.30;0.30;;;8.20;99.90;;;;;;4937366;29;20200;-68
2024/02/28 17:40:14;;;;;;;0.40;0.40;;;8.30;99.90;;;;;;4954851;28;20177;-68
2024/02/28 17:42:40;;;;;;;0.40;0.40;;;8.20;99.90;;;;;;4942764;28;20188;-66
2024/02/28 17:45:07;;;;;;;2.67;2.58;;;8.20;99.90;;;;;;4964675;28;20164;-67
2024/02/28 17:47:32;;;;;;;0.38;0.38;;;8.20;99.90;;;;;;4964346;28;20199;-66
2024/02/28 17:49:58;;;;;;;0.30;0.30;;;8.30;99.90;;;;;;4963456;28;20188;-67
2024/02/28 17:52:23;;;;;;;0.30;0.30;;;8.30;99.90;;;;;;4965026;28;20196;-67
2024/02/28 17:54:49;;;;;;;0.40;0.40;;;8.20;99.90;;;;;;4963652;28;20184;-65
2024/02/28 17:57:16;;;;;;;0.30;0.30;;;8.20;99.90;;;;;;4963566;28;20199;-66
2024/02/28 17:59:41;;;;;;;0.30;0.30;;;8.30;99.90;;;;;;4968153;28;20408;-68